Time;durP1;ratioP1;P1;durP2;ratioP2;P2;SDS_P1;SDS_P2;PMS_P1;PMS_P2;Temp;Humidity;BMP_temperature;BMP_pressure;BME280_temperature;BME280_humidity;BME280_pressure;Samples;Min_cycle;Max_cycle;Signal;HPM_P1;HPM_P2
2021/05/05 00:02:11;;;;;;;9.37;3.13;;;;;5.60;99805.00;;;;10550623;28;20539;-76
2021/05/05 00:07:13;;;;;;;7.63;3.07;;;;;5.60;99803.00;;;;10502179;28;20204;-76
2021/05/05 00:12:15;;;;;;;5.97;3.37;;;;;5.60;99808.00;;;;10466095;28;20644;-76
2021/05/05 00:17:16;;;;;;;4.87;3.40;;;;;5.50;99804.00;;;;10502495;28;20262;-75
2021/05/05 00:22:19;;;;;;;5.00;2.73;;;;;5.50;99809.00;;;;10486160;28;20216;-76
2021/05/05 00:27:21;;;;;;;6.30;3.13;;;;;5.40;99819.00;;;;10502945;28;20189;-75
2021/05/05 00:32:22;;;;;;;8.07;2.73;;;;;5.40;99821.00;;;;10524032;28;20177;-75
2021/05/05 00:37:25;;;;;;;4.87;2.93;;;;;5.40;99825.00;;;;10510056;28;20215;-75
2021/05/05 00:42:27;;;;;;;6.43;2.70;;;;;5.30;99817.00;;;;10544893;28;20280;-76
2021/05/05 00:47:28;;;;;;;8.70;2.97;;;;;5.20;99820.00;;;;10527360;28;20199;-76
2021/05/05 00:52:30;;;;;;;7.87;3.40;;;;;5.20;99829.00;;;;10544242;28;20189;-76
2021/05/05 00:57:31;;;;;;;6.10;2.50;;;;;5.20;99819.00;;;;10492810;28;20211;-75
2021/05/05 01:02:33;;;;;;;5.37;2.80;;;;;5.10;99812.00;;;;10480603;28;20703;-76
2021/05/05 01:07:36;;;;;;;5.07;3.00;;;;;5.00;99818.00;;;;10450969;28;20216;-76
2021/05/05 01:12:41;;;;;;;5.03;3.27;;;;;4.90;99812.00;;;;10452016;28;20190;-76
2021/05/05 01:17:45;;;;;;;5.73;2.77;;;;;4.80;99808.00;;;;10467433;28;20703;-76
2021/05/05 01:22:49;;;;;;;6.20;2.50;;;;;4.70;99805.00;;;;10501055;28;20189;-75
2021/05/05 01:27:51;;;;;;;4.97;2.47;;;;;4.70;99809.00;;;;10466996;28;20197;-76
2021/05/05 01:32:53;;;;;;;3.53;2.20;;;;;4.60;99808.00;;;;10484000;28;20548;-76
2021/05/05 01:37:54;;;;;;;4.17;2.80;;;;;4.60;99801.00;;;;10465878;28;20280;-76
2021/05/05 01:42:56;;;;;;;5.83;2.90;;;;;4.60;99802.00;;;;10499120;28;20544;-76
2021/05/05 01:48:04;;;;;;;8.87;3.10;;;;;4.80;99803.00;;;;10449553;28;20209;-75
2021/05/05 01:53:07;;;;;;;5.50;3.23;;;;;4.90;99813.00;;;;10498973;28;20219;-76
2021/05/05 01:58:11;;;;;;;9.70;3.20;;;;;4.90;99810.00;;;;10466326;28;20190;-76
2021/05/05 02:03:12;;;;;;;5.63;2.93;;;;;5.00;99810.00;;;;10466970;28;20224;-76
2021/05/05 02:08:22;;;;;;;7.07;2.87;;;;;5.10;99812.00;;;;10482692;28;20297;-76
2021/05/05 02:13:24;;;;;;;7.30;3.93;;;;;5.10;99809.00;;;;10465342;28;20209;-76
2021/05/05 02:18:27;;;;;;;7.07;2.97;;;;;5.10;99810.00;;;;10482342;28;20190;-76
2021/05/05 02:23:28;;;;;;;3.80;2.83;;;;;5.20;99805.00;;;;10451924;28;20193;-75
2021/05/05 02:28:31;;;;;;;6.73;3.47;;;;;5.20;99811.00;;;;10498959;28;20193;-75
2021/05/05 02:34:05;;;;;;;6.37;3.40;;;;;5.30;99823.00;;;;10467509;28;20303;-76
2021/05/05 02:39:09;;;;;;;5.47;3.40;;;;;5.40;99828.00;;;;10506426;28;20239;-76
2021/05/05 02:44:12;;;;;;;4.70;3.07;;;;;5.50;99822.00;;;;10510200;28;20190;-76
2021/05/05 02:49:13;;;;;;;7.93;3.97;;;;;5.50;99825.00;;;;10531297;28;20201;-76
2021/05/05 02:54:15;;;;;;;9.87;4.23;;;;;5.40;99822.00;;;;10504581;28;20240;-76
2021/05/05 02:59:17;;;;;;;9.50;4.73;;;;;5.40;99826.00;;;;10509046;28;20215;-76
2021/05/05 03:04:19;;;;;;;9.17;5.27;;;;;5.40;99824.00;;;;10547733;28;20220;-76
2021/05/05 03:09:24;;;;;;;10.80;4.97;;;;;5.50;99823.00;;;;10499868;28;20207;-76
2021/05/05 03:14:27;;;;;;;14.90;5.00;;;;;5.50;99810.00;;;;10507238;28;20204;-76
2021/05/05 03:19:28;;;;;;;13.47;5.07;;;;;5.50;99820.00;;;;10494423;28;20197;-75
2021/05/05 03:24:30;;;;;;;10.57;5.13;;;;;5.40;99826.00;;;;10521205;28;20347;-76
2021/05/05 03:29:31;;;;;;;15.60;5.13;;;;;5.20;99829.00;;;;10545275;28;20200;-76
2021/05/05 03:34:32;;;;;;;11.40;5.00;;;;;5.00;99824.00;;;;10545378;28;20207;-76
2021/05/05 03:39:34;;;;;;;19.77;6.27;;;;;4.90;99838.00;;;;10528644;28;20196;-76
2021/05/05 03:44:35;;;;;;;13.93;5.03;;;;;5.00;99837.00;;;;10537650;28;20196;-76
2021/05/05 03:49:37;;;;;;;11.67;5.20;;;;;5.10;99846.00;;;;10503639;28;20261;-76
2021/05/05 03:54:38;;;;;;;8.23;4.60;;;;;5.20;99833.00;;;;10520221;28;20250;-75
2021/05/05 03:59:40;;;;;;;11.10;5.33;;;;;5.20;99836.00;;;;10537483;28;20185;-76
2021/05/05 04:04:41;;;;;;;15.70;4.77;;;;;5.30;99846.00;;;;10522389;28;20691;-76
2021/05/05 04:09:42;;;;;;;11.17;4.87;;;;;5.40;99851.00;;;;10519926;28;20207;-76
2021/05/05 04:14:44;;;;;;;7.07;4.77;;;;;5.50;99852.00;;;;10533726;28;20204;-76
2021/05/05 04:20:04;;;;;;;12.83;5.10;;;;;5.50;99857.00;;;;10516999;28;20991;-76
2021/05/05 04:25:23;;;;;;;8.53;4.40;;;;;5.50;99866.00;;;;10551682;28;20277;-76
2021/05/05 04:30:25;;;;;;;8.90;4.70;;;;;5.50;99869.00;;;;10516999;28;20184;-76
2021/05/05 04:35:26;;;;;;;9.03;5.40;;;;;5.50;99885.00;;;;10499015;28;20205;-76
2021/05/05 04:40:27;;;;;;;6.40;3.93;;;;;5.50;99901.00;;;;10533294;28;20220;-75
2021/05/05 04:45:29;;;;;;;8.37;4.40;;;;;5.40;99898.00;;;;10506191;28;20204;-75
2021/05/05 04:50:32;;;;;;;5.50;4.27;;;;;5.40;99905.00;;;;10490705;28;20284;-75
2021/05/05 04:55:34;;;;;;;8.73;4.60;;;;;5.50;99898.00;;;;10515138;28;21778;-75
2021/05/05 05:00:36;;;;;;;9.67;5.73;;;;;5.50;99900.00;;;;10532357;28;20189;-75
2021/05/05 05:05:37;;;;;;;7.40;4.83;;;;;5.60;99904.00;;;;10548867;28;20205;-75
2021/05/05 05:10:38;;;;;;;12.07;5.10;;;;;5.70;99909.00;;;;10526123;28;20608;-75
2021/05/05 05:15:40;;;;;;;7.60;4.80;;;;;5.90;99917.00;;;;10488103;28;20243;-75
2021/05/05 05:20:41;;;;;;;10.07;4.67;;;;;6.30;99914.00;;;;10522640;28;20200;-75
2021/05/05 05:25:42;;;;;;;7.77;4.53;;;;;6.40;99916.00;;;;10491638;28;20669;-75
2021/05/05 05:30:44;;;;;;;5.30;3.60;;;;;6.60;99931.00;;;;10510013;28;20192;-75
2021/05/05 05:35:45;;;;;;;11.53;4.90;;;;;7.00;99933.00;;;;10491101;28;20212;-75
2021/05/05 05:40:47;;;;;;;9.83;4.90;;;;;7.40;99948.00;;;;10491588;28;20197;-75
2021/05/05 05:45:48;;;;;;;10.20;4.73;;;;;7.80;99948.00;;;;10472785;28;20815;-74
2021/05/05 05:50:49;;;;;;;7.87;3.80;;;;;8.30;99953.00;;;;10523886;28;20624;-74
2021/05/05 05:55:51;;;;;;;6.77;4.13;;;;;8.80;99965.00;;;;10524139;28;20225;-74
2021/05/05 06:00:53;;;;;;;6.73;3.50;;;;;8.00;99982.00;;;;10524353;28;20585;-74
2021/05/05 06:05:54;;;;;;;7.47;4.03;;;;;7.70;99984.00;;;;10522624;28;20736;-74
2021/05/05 06:10:56;;;;;;;6.00;3.57;;;;;7.70;99990.00;;;;10515164;28;20196;-74
2021/05/05 06:15:58;;;;;;;8.50;3.87;;;;;7.50;100002.00;;;;10489519;28;20235;-75
2021/05/05 06:21:00;;;;;;;4.27;3.87;;;;;7.20;100001.00;;;;10557131;28;20215;-76
2021/05/05 06:26:02;;;;;;;5.73;3.20;;;;;6.80;100027.00;;;;10490143;28;20595;-75
2021/05/05 06:31:04;;;;;;;7.17;4.00;;;;;6.00;100036.00;;;;10507836;28;20653;-75
2021/05/05 06:36:06;;;;;;;10.80;3.47;;;;;5.80;100044.00;;;;10505890;28;20201;-75
2021/05/05 06:41:07;;;;;;;4.87;3.50;;;;;5.70;100038.00;;;;10520741;28;20636;-75
2021/05/05 06:46:09;;;;;;;5.17;4.13;;;;;5.60;100056.00;;;;10505728;28;20208;-75
2021/05/05 06:51:10;;;;;;;10.70;5.10;;;;;5.60;100058.00;;;;10488002;28;20195;-74
2021/05/05 06:56:11;;;;;;;7.20;3.83;;;;;6.00;100066.00;;;;10539587;28;20291;-75
2021/05/05 07:01:13;;;;;;;5.17;4.50;;;;;6.80;100073.00;;;;10538669;28;20235;-74
2021/05/05 07:06:19;;;;;;;7.27;4.57;;;;;7.40;100079.00;;;;10504170;28;21134;-74
2021/05/05 07:11:23;;;;;;;4.97;4.30;;;;;8.00;100096.00;;;;10486274;28;20227;-74
2021/05/05 07:16:24;;;;;;;3.70;3.40;;;;;8.40;100095.00;;;;10536503;28;20221;-74
2021/05/05 07:21:26;;;;;;;5.27;2.93;;;;;8.90;100109.00;;;;10500216;28;20196;-74
2021/05/05 07:26:27;;;;;;;4.83;2.57;;;;;9.00;100113.00;;;;10531068;28;20217;-74
2021/05/05 07:31:29;;;;;;;3.33;2.20;;;;;8.90;100116.00;;;;10539557;28;20521;-74
2021/05/05 07:36:30;;;;;;;2.97;2.30;;;;;8.70;100137.00;;;;10537908;28;20254;-74
2021/05/05 07:51:56;;;;;;;7.50;2.70;;;;;12.30;100135.00;;;;10497845;28;20181;-74
2021/05/05 07:56:56;;;;;;;6.17;2.20;;;;;12.40;100145.00;;;;10467889;28;20575;-74
2021/05/05 08:01:57;;;;;;;7.63;2.30;;;;;12.30;100151.00;;;;10518346;28;20665;-74
2021/05/05 08:07:01;;;;;;;8.47;2.13;;;;;10.70;100162.00;;;;10519243;28;20208;-74
2021/05/05 08:12:02;;;;;;;23.00;3.33;;;;;9.00;100177.00;;;;10496142;28;20262;-74
2021/05/05 08:17:04;;;;;;;7.10;2.53;;;;;8.00;100179.00;;;;10499119;28;20216;-74
2021/05/05 08:22:05;;;;;;;6.57;2.33;;;;;7.70;100174.00;;;;10489019;28;20199;-74
2021/05/05 08:27:07;;;;;;;7.87;2.47;;;;;7.90;100169.00;;;;10526040;28;20265;-74
2021/05/05 08:32:08;;;;;;;5.00;2.43;;;;;9.80;100181.00;;;;10515558;28;20192;-74
2021/05/05 08:37:10;;;;;;;7.27;2.47;;;;;9.20;100200.00;;;;10515053;28;20216;-74
2021/05/05 08:42:12;;;;;;;8.50;2.53;;;;;9.80;100172.00;;;;10498101;28;20188;-74
2021/05/05 08:47:16;;;;;;;10.60;2.27;;;;;11.30;100182.00;;;;10494859;28;20201;-74
2021/05/05 08:52:19;;;;;;;8.40;2.60;;;;;13.40;100180.00;;;;10479257;28;20243;-75
2021/05/05 08:57:22;;;;;;;9.13;2.00;;;;;13.10;100191.00;;;;10504474;28;20285;-74
2021/05/05 09:02:23;;;;;;;6.60;2.37;;;;;12.80;100195.00;;;;10519992;28;20216;-74
2021/05/05 09:07:36;;;;;;;7.57;2.10;;;;;11.70;100209.00;;;;10498459;28;20232;-74
2021/05/05 09:12:40;;;;;;;6.63;2.00;;;;;13.10;100220.00;;;;10521607;28;20196;-74
2021/05/05 09:17:55;;;;;;;6.63;2.70;;;;;14.00;100219.00;;;;10503899;28;20239;-76
2021/05/05 09:22:59;;;;;;;6.13;2.67;;;;;14.60;100219.00;;;;10521365;28;20193;-73
2021/05/05 09:28:10;;;;;;;7.63;1.80;;;;;13.30;100242.00;;;;10521258;28;20177;-72
2021/05/05 09:33:31;;;;;;;14.33;3.30;;;;;12.40;100235.00;;;;10504106;28;20678;-75
2021/05/05 09:38:41;;;;;;;5.93;2.37;;;;;13.90;100251.00;;;;10521403;28;20215;-73
2021/05/05 09:43:43;;;;;;;6.10;2.10;;;;;15.00;100249.00;;;;10498543;28;20276;-74
2021/05/05 09:48:44;;;;;;;6.03;1.40;;;;;13.20;100250.00;;;;10537144;28;20910;-74
2021/05/05 09:53:53;;;;;;;9.63;1.80;;;;;14.40;100245.00;;;;10492250;28;20196;-74
2021/05/05 09:58:59;;;;;;;5.30;1.67;;;;;15.00;100246.00;;;;10549109;28;20197;-74
2021/05/05 10:04:03;;;;;;;6.47;2.07;;;;;13.90;100236.00;;;;10534125;28;20644;-74
2021/05/05 10:09:13;;;;;;;3.23;1.67;;;;;13.30;100252.00;;;;10505428;28;20212;-73
2021/05/05 10:14:17;;;;;;;3.83;1.57;;;;;12.10;100275.00;;;;10533700;28;20278;-74
2021/05/05 10:19:26;;;;;;;8.93;2.10;;;;;11.40;100272.00;;;;10478512;28;20598;-75
2021/05/05 10:24:31;;;;;;;6.30;1.73;;;;;12.90;100275.00;;;;10501862;28;20269;-75
2021/05/05 10:29:35;;;;;;;6.57;1.60;;;;;15.10;100273.00;;;;10518851;28;20221;-75
2021/05/05 10:34:39;;;;;;;5.77;1.50;;;;;16.60;100279.00;;;;10507138;28;20209;-76
2021/05/05 10:39:42;;;;;;;5.20;1.30;;;;;16.10;100273.00;;;;10528445;28;20239;-76
2021/05/05 10:44:52;;;;;;;3.83;1.60;;;;;16.10;100296.00;;;;10547612;28;20185;-76
2021/05/05 10:55:09;;;;;;;2.43;1.30;;;;;16.60;100299.00;;;;10541337;28;20366;-76
2021/05/05 11:00:14;;;;;;;5.23;1.73;;;;;15.40;100300.00;;;;10546283;28;20192;-75
2021/05/05 11:05:17;;;;;;;5.27;1.57;;;;;16.20;100311.00;;;;10516556;28;20222;-76
2021/05/05 11:10:35;;;;;;;3.63;1.23;;;;;16.80;100298.00;;;;10535547;28;20238;-76
2021/05/05 11:15:42;;;;;;;5.97;1.87;;;;;17.90;100312.00;;;;10475703;28;20219;-76
2021/05/05 11:20:44;;;;;;;4.40;1.23;;;;;15.20;100333.00;;;;10536417;28;20181;-75
2021/05/05 11:25:45;;;;;;;4.27;1.63;;;;;12.40;100356.00;;;;10466292;28;20254;-75
2021/05/05 11:30:52;;;;;;;5.57;2.10;;;;;11.90;100353.00;;;;10480210;28;20194;-75
2021/05/05 11:35:53;;;;;;;7.17;1.90;;;;;13.90;100339.00;;;;10513824;28;20263;-77
2021/05/05 11:41:01;;;;;;;6.43;1.60;;;;;16.10;100337.00;;;;10510303;28;20201;-76
2021/05/05 11:46:03;;;;;;;4.53;2.10;;;;;17.00;100342.00;;;;10496905;28;20197;-76
2021/05/05 11:51:21;;;;;;;5.57;2.00;;;;;18.30;100348.00;;;;10478916;28;20190;-76
2021/05/05 11:56:26;;;;;;;3.87;1.83;;;;;18.80;100338.00;;;;10516070;28;20287;-76
2021/05/05 12:01:38;;;;;;;3.77;1.70;;;;;17.60;100358.00;;;;10516276;28;20196;-77
2021/05/05 12:06:50;;;;;;;2.63;1.40;;;;;15.50;100356.00;;;;10526675;28;20219;-76
2021/05/05 12:12:24;;;;;;;3.67;1.70;;;;;14.20;100352.00;;;;10501098;28;20196;-76
2021/05/05 12:17:30;;;;;;;6.23;1.60;;;;;14.70;100362.00;;;;10475937;28;20282;-76
2021/05/05 12:22:33;;;;;;;3.67;1.50;;;;;15.20;100366.00;;;;10457737;28;20250;-76
2021/05/05 12:27:37;;;;;;;6.47;1.53;;;;;14.70;100381.00;;;;10530957;28;20253;-76
2021/05/05 12:32:48;;;;;;;3.63;1.20;;;;;15.20;100377.00;;;;10497352;28;20186;-75
2021/05/05 12:37:51;;;;;;;3.40;1.40;;;;;14.40;100404.00;;;;10489851;28;20209;-75
2021/05/05 12:42:53;;;;;;;4.63;1.43;;;;;14.80;100402.00;;;;10521851;28;20197;-75
2021/05/05 12:48:00;;;;;;;4.60;1.77;;;;;16.90;100381.00;;;;10500070;28;20197;-75
2021/05/05 12:53:04;;;;;;;3.93;1.67;;;;;18.60;100390.00;;;;10522814;28;20197;-75
2021/05/05 12:58:13;;;;;;;4.57;1.20;;;;;18.70;100391.00;;;;10504250;28;20213;-75
2021/05/05 13:03:20;;;;;;;2.80;1.23;;;;;16.00;100413.00;;;;10520607;28;20202;-75
2021/05/05 13:08:52;;;;;;;2.63;1.17;;;;;15.50;100402.00;;;;10526203;28;20209;-75
2021/05/05 13:14:04;;;;;;;3.00;1.20;;;;;16.00;100399.00;;;;10520972;28;20196;-76
2021/05/05 13:19:18;;;;;;;6.03;1.60;;;;;14.50;100422.00;;;;10526522;28;20193;-75
2021/05/05 13:35:33;;;;;;;3.70;1.60;;;;;23.00;100414.00;;;;10508656;28;20216;-75
2021/05/05 13:40:37;;;;;;;5.03;2.10;;;;;22.90;100421.00;;;;10539528;28;20208;-76
2021/05/05 13:45:41;;;;;;;3.63;1.50;;;;;23.30;100420.00;;;;10481785;28;20674;-76
2021/05/05 13:50:42;;;;;;;3.75;1.73;;;;;23.70;100424.00;;;;10542318;28;20189;-76
2021/05/05 13:55:44;;;;;;;3.08;1.33;;;;;24.10;100417.00;;;;10540277;28;20258;-75
2021/05/05 14:00:45;;;;;;;2.65;1.30;;;;;25.50;100429.00;;;;10513264;28;20283;-75
2021/05/05 14:05:50;;;;;;;1.25;1.15;;;;;26.00;100432.00;;;;10523069;28;20606;-75
2021/05/05 14:10:53;;;;;;;9.85;2.33;;;;;21.30;100432.00;;;;10532264;28;20200;-74
2021/05/05 14:15:55;;;;;;;4.47;1.60;;;;;22.90;100436.00;;;;10522925;28;20221;-76
2021/05/05 14:21:01;;;;;;;3.00;1.52;;;;;25.40;100426.00;;;;10523816;28;20192;-76
2021/05/05 14:26:03;;;;;;;2.25;1.50;;;;;26.30;100440.00;;;;10560994;28;20191;-75
2021/05/05 14:31:07;;;;;;;3.63;1.70;;;;;26.00;100427.00;;;;10515873;28;20201;-75
2021/05/05 14:36:10;;;;;;;3.63;1.40;;;;;25.60;100414.00;;;;10512747;28;20250;-76
2021/05/05 14:41:25;;;;;;;4.25;1.27;;;;;26.20;100434.00;;;;10535750;28;20197;-74
2021/05/05 14:51:28;;;;;;;2.97;1.38;;;;;27.70;100429.00;;;;10482781;28;20189;-74
2021/05/05 14:56:30;;;;;;;6.03;1.45;;;;;25.00;100424.00;;;;10540505;28;20262;-75
2021/05/05 15:01:31;;;;;;;3.17;1.65;;;;;24.00;100422.00;;;;10485826;28;20188;-74
2021/05/05 15:06:36;;;;;;;4.85;1.52;;;;;26.50;100410.00;;;;10504044;28;20213;-74
2021/05/05 15:48:29;;;;;;;4.70;1.67;;;;;25.40;100435.00;;;;10476636;28;20235;-75
2021/05/05 15:53:39;;;;;;;3.10;1.92;;;;;24.50;100441.00;;;;10444382;28;20194;-75
2021/05/05 15:58:44;;;;;;;2.65;1.58;;;;;18.90;100410.00;;;;10474960;28;20209;-74
2021/05/05 16:19:26;;;;;;;3.57;1.77;;;;;13.90;100429.00;;;;10500018;28;20189;-73
2021/05/05 16:56:22;;;;;;;1.77;1.47;;;;;12.80;100426.00;;;;10475944;28;20209;-74
2021/05/05 17:12:04;;;;;;;4.90;2.00;;;;;12.80;100418.00;;;;10464221;28;20209;-73
2021/05/05 17:17:12;;;;;;;7.03;2.70;;;;;12.80;100410.00;;;;10471089;28;20213;-74
2021/05/05 17:22:19;;;;;;;6.03;2.20;;;;;12.50;100420.00;;;;10437550;28;20288;-74
2021/05/05 17:27:42;;;;;;;3.90;2.20;;;;;12.50;100406.00;;;;10488832;28;20209;-74
2021/05/05 18:10:16;;;;;;;4.53;3.00;;;;;10.40;100430.00;;;;10436649;28;20221;-74
2021/05/05 18:20:20;;;;;;;2.37;1.60;;;;;7.90;100516.00;;;;10479402;28;20243;-77
2021/05/05 18:25:38;;;;;;;2.23;1.53;;;;;7.00;100533.00;;;;10487126;28;20194;-76
2021/05/05 18:30:40;;;;;;;2.63;1.40;;;;;6.60;100534.00;;;;10440830;28;20212;-76
2021/05/05 18:35:41;;;;;;;2.60;1.53;;;;;6.40;100512.00;;;;10442187;28;20609;-76
2021/05/05 18:41:03;;;;;;;4.87;2.07;;;;;6.30;100471.00;;;;10497117;28;20225;-76
2021/05/05 19:07:45;;;;;;;3.07;2.20;;;;;6.30;100431.00;;;;10474187;28;21005;-74
2021/05/05 21:09:59;;;;;;;9.27;5.77;;;;;5.70;100463.00;;;;10481821;28;20264;-75
2021/05/05 21:16:16;;;;;;;7.53;5.53;;;;;5.60;100464.00;;;;10467867;28;20213;-75
2021/05/05 22:51:26;;;;;;;5.90;2.47;;;;;5.20;100393.00;;;;10451933;28;20243;-75
2021/05/05 23:17:30;;;;;;;4.63;2.17;;;;;5.70;100382.00;;;;10494042;28;20601;-75
2021/05/05 23:23:06;;;;;;;5.20;2.10;;;;;5.80;100376.00;;;;10479748;28;20195;-75
2021/05/05 23:28:16;;;;;;;6.17;2.23;;;;;5.80;100370.00;;;;10445427;28;20200;-75
